Randolph, Wisconsin
Current Conditions -  °F | °C
As of 12:15 PM on Sunday 25 Jan 2015 (Local Time) from KUNU Reporting Station
Scattered Clouds Scattered Clouds  
Wind Chill: 14°   Ceiling: Unl
Heat Index: 26°   Visibility: 10mi
Dew Point: 13°   Wind: 15mph
Humidity: 56%   Direction: 40°NE
Pressure: 29.95"   Gusts: 24mph
Location:  43.54°N, 89°W
Report Text: KUNU 251815Z AUTO 04013G21KT 10SM SCT030 M03/M11 A2995 RMK AO2 T10311107
Loading
Personal Weather Stations






























Interactive Weather Map New forecast layout! Learn more

10-Day Weather Forecast

Advertisements
Track Severe Weather on mobile